createdAt,value
2022-11-28T00:01:34.360Z,7.18
2022-11-28T00:04:02.863Z,7.38
2022-11-28T00:06:31.234Z,7.25
2022-11-28T00:09:00.343Z,7.28
2022-11-28T00:11:29.791Z,6.88
2022-11-28T00:13:57.850Z,7.65
2022-11-28T00:16:26.439Z,7.30
2022-11-28T00:18:56.007Z,7.38
2022-11-28T00:21:24.929Z,6.65
2022-11-28T00:23:53.426Z,7.13
2022-11-28T00:26:24.958Z,7.00
2022-11-28T00:28:55.862Z,6.32
2022-11-28T00:31:26.655Z,7.80
2022-11-28T00:33:55.046Z,7.07
2022-11-28T00:36:23.688Z,6.78
2022-11-28T00:38:52.287Z,7.20
2022-11-28T00:41:22.654Z,6.93
2022-11-28T00:43:51.999Z,6.75
2022-11-28T00:46:22.887Z,7.93
2022-11-28T00:48:51.468Z,6.60
2022-11-28T00:51:21.501Z,7.00
2022-11-28T00:53:50.879Z,6.10
2022-11-28T00:56:20.899Z,7.05
2022-11-28T00:58:49.937Z,7.03
2022-11-28T01:01:20.160Z,7.60
2022-11-28T01:03:51.103Z,6.95
2022-11-28T01:06:23.218Z,7.25
2022-11-28T01:08:51.966Z,6.30
2022-11-28T01:11:20.361Z,7.15
2022-11-28T01:13:48.457Z,6.78
2022-11-28T01:16:16.916Z,7.10
2022-11-28T01:18:45.018Z,6.90
2022-11-28T01:21:14.494Z,6.35
2022-11-28T01:23:42.545Z,6.70
2022-11-28T01:26:13.145Z,6.65
2022-11-28T01:28:41.181Z,7.18
2022-11-28T01:31:11.304Z,7.95
2022-11-28T01:33:39.416Z,6.88
2022-11-28T01:36:07.894Z,7.25
2022-11-28T01:38:37.293Z,7.43
2022-11-28T01:41:06.241Z,7.47
2022-11-28T01:43:35.133Z,7.10
2022-11-28T01:46:04.104Z,7.57
2022-11-28T01:48:38.847Z,7.15
2022-11-28T01:51:09.961Z,7.20
2022-11-28T01:53:43.881Z,8.27
2022-11-28T01:56:15.948Z,7.40
2022-11-28T01:58:48.632Z,7.30
2022-11-28T02:01:17.824Z,7.10
2022-11-28T02:03:48.299Z,8.20
2022-11-28T02:06:20.057Z,8.20
2022-11-28T02:08:52.478Z,7.85
2022-11-28T02:11:37.732Z,7.25
2022-11-28T02:14:14.113Z,7.80
2022-11-28T02:16:53.219Z,7.70
2022-11-28T02:19:48.230Z,7.97
2022-11-28T02:22:21.458Z,8.10
2022-11-28T02:25:13.737Z,7.45
2022-11-28T02:30:22.306Z,7.57
2022-11-28T02:35:34.507Z,7.53
2022-11-28T02:38:10.371Z,7.63
2022-11-28T02:40:42.320Z,8.00
2022-11-28T02:48:25.457Z,7.63
2022-11-28T02:51:01.634Z,8.00
2022-11-28T02:53:33.334Z,7.93
2022-11-28T02:56:01.863Z,7.60
2022-11-28T02:58:29.881Z,7.78
2022-11-28T03:00:58.455Z,8.10
2022-11-28T03:03:43.165Z,7.75
2022-11-28T03:06:19.854Z,8.68
2022-11-28T03:09:03.282Z,8.00
2022-11-28T03:11:47.192Z,7.68
2022-11-28T03:14:29.381Z,8.45
2022-11-28T03:19:36.693Z,7.80
2022-11-28T03:22:10.683Z,8.05
2022-11-28T03:24:44.680Z,7.97
2022-11-28T03:27:17.800Z,9.50
2022-11-28T03:29:49.425Z,7.93
2022-11-28T03:32:22.237Z,8.30
2022-11-28T03:34:57.609Z,7.45
2022-11-28T03:37:28.890Z,8.30
2022-11-28T03:40:03.466Z,8.40
2022-11-28T03:42:36.232Z,8.30
2022-11-28T03:45:09.364Z,8.15
2022-11-28T03:47:42.077Z,8.57
2022-11-28T03:50:16.886Z,8.63
2022-11-28T03:52:50.640Z,8.68
2022-11-28T03:55:22.994Z,9.07
2022-11-28T03:57:58.486Z,8.02
2022-11-28T04:00:27.165Z,8.38
2022-11-28T04:03:02.613Z,8.40
2022-11-28T04:05:42.855Z,8.57
2022-11-28T04:08:17.580Z,8.57
2022-11-28T04:10:49.992Z,8.23
2022-11-28T04:13:24.987Z,8.13
2022-11-28T04:15:58.315Z,8.20
2022-11-28T04:18:31.172Z,8.10
2022-11-28T04:21:08.217Z,9.05
2022-11-28T04:23:38.756Z,8.63
2022-11-28T04:26:10.092Z,8.48
2022-11-28T04:28:40.453Z,9.10
2022-11-28T04:31:09.569Z,8.32
2022-11-28T04:33:40.193Z,8.30
2022-11-28T04:36:12.545Z,9.45
2022-11-28T04:38:43.056Z,9.05
2022-11-28T04:41:17.837Z,8.80
2022-11-28T04:43:51.146Z,8.77
2022-11-28T04:46:25.068Z,8.45
2022-11-28T04:48:53.257Z,9.02
2022-11-28T04:51:26.705Z,8.38
2022-11-28T04:54:02.062Z,8.27
2022-11-28T04:56:35.590Z,8.57
2022-11-28T04:59:07.546Z,7.97
2022-11-28T05:04:04.211Z,8.30
2022-11-28T05:06:35.474Z,8.65
2022-11-28T05:09:04.872Z,8.32
2022-11-28T05:11:33.142Z,8.00
2022-11-28T05:14:01.229Z,8.63
2022-11-28T05:16:29.391Z,8.20
2022-11-28T05:18:57.467Z,8.27
2022-11-28T05:21:25.606Z,8.35
2022-11-28T05:23:55.022Z,8.82
2022-11-28T05:26:23.834Z,8.57
2022-11-28T05:28:52.611Z,8.82
2022-11-28T05:31:22.395Z,8.05
2022-11-28T05:33:50.516Z,9.43
2022-11-28T05:36:19.277Z,9.27
2022-11-28T05:38:47.455Z,9.38
2022-11-28T05:41:23.312Z,7.97
2022-11-28T05:43:51.642Z,8.82
2022-11-28T05:46:20.293Z,9.38
2022-11-28T05:48:48.633Z,8.43
2022-11-28T05:51:16.708Z,9.13
2022-11-28T05:53:44.899Z,15.55
2022-11-28T05:56:15.442Z,15.80
2022-11-28T05:58:45.453Z,16.70
2022-11-28T06:01:14.947Z,67.68
2022-11-28T06:03:43.548Z,38.78
2022-11-28T06:06:13.880Z,17.30
2022-11-28T06:08:42.015Z,12.52
2022-11-28T06:11:10.616Z,10.73
2022-11-28T06:13:38.647Z,10.10
2022-11-28T06:16:11.158Z,8.95
2022-11-28T06:18:39.509Z,10.18
2022-11-28T06:21:09.217Z,8.85
2022-11-28T06:23:39.107Z,9.75
2022-11-28T06:26:08.484Z,9.88
2022-11-28T06:28:36.988Z,8.85
2022-11-28T06:31:05.914Z,9.20
2022-11-28T06:33:35.314Z,9.90
2022-11-28T06:36:04.704Z,10.27
2022-11-28T06:38:33.197Z,10.43
2022-11-28T06:41:02.476Z,8.85
2022-11-28T06:43:31.479Z,9.15
2022-11-28T06:45:59.876Z,8.93
2022-11-28T06:48:28.606Z,8.70
2022-11-28T06:51:03.731Z,10.05
2022-11-28T06:53:31.864Z,9.88
2022-11-28T06:55:59.971Z,9.90
2022-11-28T06:58:27.996Z,9.90
2022-11-28T07:00:56.686Z,9.45
2022-11-28T07:03:24.781Z,9.40
2022-11-28T07:05:52.810Z,8.20
2022-11-28T07:08:22.427Z,9.75
2022-11-28T07:10:50.489Z,9.43
2022-11-28T07:13:18.525Z,9.40
2022-11-28T07:15:50.092Z,9.20
2022-11-28T07:18:18.195Z,10.32
2022-11-28T07:20:46.251Z,9.68
2022-11-28T07:23:14.333Z,9.75
2022-11-28T07:25:43.721Z,11.00
2022-11-28T07:28:11.761Z,9.75
2022-11-28T07:30:39.794Z,10.25
2022-11-28T07:33:07.824Z,10.30
2022-11-28T07:35:35.904Z,10.43
2022-11-28T07:38:04.270Z,9.93
2022-11-28T07:40:32.303Z,10.23
2022-11-28T07:43:01.712Z,9.73
2022-11-28T07:45:47.461Z,10.32
2022-11-28T07:48:29.569Z,10.02
2022-11-28T07:50:57.637Z,9.98
2022-11-28T07:53:25.731Z,10.15
2022-11-28T07:55:53.816Z,9.82
2022-11-28T07:58:22.167Z,10.85
2022-11-28T08:00:50.217Z,11.27
2022-11-28T08:03:18.270Z,10.20
2022-11-28T08:05:49.589Z,10.32
2022-11-28T08:08:18.111Z,10.85
2022-11-28T08:10:46.247Z,10.52
2022-11-28T08:13:15.090Z,10.43
2022-11-28T08:15:43.261Z,10.38
2022-11-28T08:18:11.319Z,10.82
2022-11-28T08:20:39.336Z,10.85
2022-11-28T08:23:08.824Z,10.95
2022-11-28T08:25:36.939Z,10.60
2022-11-28T08:28:05.253Z,14.32
2022-11-28T08:30:33.402Z,12.23
2022-11-28T08:33:01.449Z,11.25
2022-11-28T08:35:29.498Z,11.60
2022-11-28T08:38:01.619Z,11.27
2022-11-28T08:40:31.500Z,10.70
2022-11-28T08:43:00.027Z,10.82
2022-11-28T08:45:28.150Z,10.80
2022-11-28T08:47:56.186Z,11.07
2022-11-28T08:50:24.219Z,10.15
2022-11-28T08:52:52.224Z,10.98
2022-11-28T08:55:25.133Z,10.63
2022-11-28T08:58:01.243Z,14.15
2022-11-28T09:00:58.688Z,11.95
2022-11-28T09:03:27.026Z,11.50
2022-11-28T09:06:00.767Z,10.95
2022-11-28T09:08:29.084Z,10.90
2022-11-28T09:10:57.254Z,11.55
2022-11-28T09:13:26.804Z,10.23
2022-11-28T09:15:55.381Z,12.20
2022-11-28T09:18:23.563Z,10.70
2022-11-28T09:20:51.747Z,10.60
2022-11-28T09:23:19.935Z,11.15
2022-11-28T09:25:48.093Z,10.25
2022-11-28T09:28:16.256Z,12.15
2022-11-28T09:30:46.404Z,10.40
2022-11-28T09:33:14.837Z,10.00
2022-11-28T09:35:43.346Z,9.55
2022-11-28T09:38:11.553Z,9.73
2022-11-28T09:40:43.097Z,10.18
2022-11-28T09:43:17.908Z,9.55
2022-11-28T09:45:51.898Z,9.18
2022-11-28T09:48:27.533Z,10.07
2022-11-28T09:50:59.337Z,20.55
2022-11-28T09:53:33.577Z,15.70
2022-11-28T09:56:07.616Z,13.20
2022-11-28T09:58:43.913Z,11.65
2022-11-28T10:01:18.959Z,10.52
2022-11-28T10:03:55.561Z,11.27
2022-11-28T10:06:27.304Z,10.23
2022-11-28T10:09:19.949Z,9.77
2022-11-28T10:12:02.168Z,8.95
2022-11-28T10:15:04.848Z,10.35
2022-11-28T10:17:45.817Z,11.30
2022-11-28T10:20:19.055Z,17.30
2022-11-28T10:22:51.617Z,12.32
2022-11-28T10:25:23.613Z,9.95
2022-11-28T10:30:24.848Z,9.95
2022-11-28T10:33:04.036Z,10.18
2022-11-28T10:35:39.682Z,10.18
2022-11-28T10:38:13.639Z,9.15
2022-11-28T10:40:47.721Z,9.32
2022-11-28T10:43:27.455Z,9.43
2022-11-28T10:46:10.583Z,10.23
2022-11-28T10:48:48.726Z,24.73
2022-11-28T10:51:41.240Z,43.15
2022-11-28T10:54:26.371Z,38.10
2022-11-28T10:57:10.164Z,14.02
2022-11-28T10:59:52.221Z,10.98
2022-11-28T11:02:32.304Z,11.43
2022-11-28T11:05:02.974Z,16.83
2022-11-28T11:07:33.121Z,19.30
2022-11-28T11:10:14.488Z,18.60
2022-11-28T11:12:44.446Z,11.97
2022-11-28T11:15:23.192Z,14.77
2022-11-28T11:17:51.972Z,17.50
2022-11-28T11:20:34.803Z,14.70
2022-11-28T11:23:13.026Z,13.20
2022-11-28T11:25:52.163Z,10.93
2022-11-28T11:28:50.220Z,10.77
2022-11-28T11:31:25.764Z,10.60
2022-11-28T11:34:02.443Z,11.00
2022-11-28T11:36:33.516Z,10.55
2022-11-28T11:39:16.919Z,11.57
2022-11-28T11:41:46.514Z,12.98
2022-11-28T11:44:30.261Z,15.10
2022-11-28T11:47:02.912Z,29.50
2022-11-28T11:49:33.564Z,40.83
2022-11-28T11:52:06.179Z,30.73
2022-11-28T11:54:34.944Z,13.30
2022-11-28T11:57:31.388Z,11.65
2022-11-28T11:59:57.272Z,10.73
2022-11-28T12:02:32.214Z,10.52
2022-11-28T12:05:05.433Z,11.05
2022-11-28T12:07:40.602Z,11.00
2022-11-28T12:10:16.402Z,10.13
2022-11-28T12:12:44.631Z,10.13
2022-11-28T12:15:26.297Z,10.57
2022-11-28T12:18:02.502Z,9.80
2022-11-28T12:20:54.424Z,9.32
2022-11-28T12:23:55.646Z,10.07
2022-11-28T12:26:32.480Z,9.55
2022-11-28T12:29:12.000Z,10.07
2022-11-28T12:31:47.633Z,9.80
2022-11-28T12:34:25.971Z,10.18
2022-11-28T12:37:01.526Z,9.88
2022-11-28T12:39:45.857Z,9.45
2022-11-28T12:42:38.241Z,9.98
2022-11-28T12:45:20.213Z,9.82
2022-11-28T12:47:59.329Z,9.55
2022-11-28T12:50:34.225Z,10.02
2022-11-28T12:53:28.980Z,9.68
2022-11-28T12:56:10.571Z,9.82
2022-11-28T12:58:46.142Z,10.25
2022-11-28T13:01:45.990Z,9.98
2022-11-28T13:04:28.334Z,10.30
2022-11-28T13:07:08.223Z,9.50
2022-11-28T13:09:39.637Z,10.25
2022-11-28T13:12:24.763Z,14.18
2022-11-28T13:14:55.811Z,30.15
2022-11-28T13:17:40.668Z,12.10
2022-11-28T13:20:21.014Z,11.23
2022-11-28T13:23:06.074Z,10.43
2022-11-28T13:25:42.987Z,10.77
2022-11-28T13:28:20.119Z,10.65
2022-11-28T13:30:52.348Z,10.05
2022-11-28T13:33:44.406Z,11.07
2022-11-28T13:39:16.862Z,10.07
2022-11-28T13:42:21.520Z,10.50
2022-11-28T13:44:49.587Z,11.57
2022-11-28T13:47:30.430Z,10.32
2022-11-28T13:50:38.061Z,10.15
2022-11-28T13:53:23.633Z,9.82
2022-11-28T13:55:53.550Z,10.30
2022-11-28T13:58:26.014Z,9.90
2022-11-28T14:01:10.680Z,10.43
2022-11-28T14:03:47.874Z,10.45
2022-11-28T14:06:19.884Z,10.27
2022-11-28T14:12:02.067Z,30.77
2022-11-28T14:14:51.094Z,17.75
2022-11-28T14:17:40.509Z,27.20
2022-11-28T14:20:22.111Z,16.25
2022-11-28T14:23:03.150Z,12.65
2022-11-28T14:25:33.765Z,11.25
2022-11-28T14:28:06.098Z,11.13
2022-11-28T14:30:37.731Z,10.95
2022-11-28T14:33:18.129Z,10.43
2022-11-28T14:36:24.787Z,11.13
2022-11-28T14:39:06.248Z,11.77
2022-11-28T14:41:54.418Z,12.25
2022-11-28T14:44:50.644Z,11.60
2022-11-28T14:47:28.289Z,9.88
2022-11-28T14:50:52.533Z,11.48
2022-11-28T14:53:50.758Z,11.00
2022-11-28T14:56:29.062Z,11.60
2022-11-28T14:58:59.947Z,11.75
2022-11-28T15:01:42.533Z,11.68
2022-11-28T15:04:30.484Z,11.57
2022-11-28T15:07:00.812Z,11.35
2022-11-28T15:09:42.654Z,11.70
2022-11-28T15:12:18.726Z,10.80
2022-11-28T15:14:51.914Z,11.63
2022-11-28T15:17:24.071Z,10.57
2022-11-28T15:19:53.431Z,11.88
2022-11-28T15:22:32.901Z,13.75
2022-11-28T15:25:02.491Z,24.88
2022-11-28T15:27:30.685Z,17.65
2022-11-28T15:30:01.032Z,15.32
2022-11-28T15:32:32.576Z,21.58
2022-11-28T15:35:06.568Z,22.70
2022-11-28T15:37:37.871Z,37.40
2022-11-28T15:40:08.924Z,36.60
2022-11-28T15:42:38.925Z,37.87
2022-11-28T15:45:13.252Z,25.60
2022-11-28T15:47:41.622Z,26.33
2022-11-28T15:50:17.809Z,28.25
2022-11-28T15:52:55.065Z,21.92
2022-11-28T15:55:25.196Z,16.85
2022-11-28T15:57:53.364Z,15.73
2022-11-28T16:00:24.354Z,15.25
2022-11-28T16:02:52.678Z,17.67
2022-11-28T16:05:23.037Z,18.70
2022-11-28T16:07:52.812Z,15.88
2022-11-28T16:10:26.770Z,17.25
2022-11-28T16:12:59.346Z,14.45
2022-11-28T16:15:28.504Z,14.77
2022-11-28T16:17:57.311Z,15.05
2022-11-28T16:20:28.769Z,14.80
2022-11-28T16:23:02.650Z,13.90
2022-11-28T16:25:32.683Z,14.70
2022-11-28T16:28:01.369Z,12.05
2022-11-28T16:30:34.837Z,11.43
2022-11-28T16:33:03.040Z,12.43
2022-11-28T16:35:33.852Z,12.35
2022-11-28T16:38:07.185Z,11.90
2022-11-28T16:40:36.880Z,12.05
2022-11-28T16:43:06.208Z,18.35
2022-11-28T16:45:35.274Z,15.60
2022-11-28T16:48:08.773Z,14.82
2022-11-28T16:50:37.429Z,13.63
2022-11-28T16:53:06.525Z,14.18
2022-11-28T16:55:46.262Z,13.52
2022-11-28T16:58:20.006Z,13.18
2022-11-28T17:00:59.104Z,12.27
2022-11-28T17:03:51.366Z,13.88
2022-11-28T17:06:22.302Z,13.65
2022-11-28T17:08:50.669Z,12.68
2022-11-28T17:11:23.294Z,14.02
2022-11-28T17:13:51.831Z,13.32
2022-11-28T17:16:22.166Z,15.70
2022-11-28T17:18:51.215Z,13.18
2022-11-28T17:21:28.159Z,32.95
2022-11-28T17:23:56.803Z,23.63
2022-11-28T17:26:26.358Z,14.07
2022-11-28T17:28:54.580Z,12.20
2022-11-28T17:31:23.853Z,13.55
2022-11-28T17:33:52.282Z,15.27
2022-11-28T17:36:20.445Z,15.98
2022-11-28T17:38:48.615Z,12.05
2022-11-28T17:41:16.776Z,12.90
2022-11-28T17:43:46.372Z,13.70
2022-11-28T17:46:14.635Z,11.43
2022-11-28T17:48:43.071Z,10.80
2022-11-28T17:51:11.803Z,9.95
2022-11-28T17:53:39.971Z,9.15
2022-11-28T17:56:10.857Z,11.07
2022-11-28T17:58:40.648Z,10.95
2022-11-28T18:01:12.438Z,10.30
2022-11-28T18:03:41.067Z,10.27
2022-11-28T18:06:16.529Z,10.25
2022-11-28T18:08:44.762Z,9.43
2022-11-28T18:11:14.108Z,8.82
2022-11-28T18:13:43.322Z,9.95
2022-11-28T18:16:14.415Z,8.60
2022-11-28T18:18:42.731Z,7.90
2022-11-28T18:21:12.432Z,9.02
2022-11-28T18:23:40.925Z,7.78
2022-11-28T18:26:09.707Z,8.15
2022-11-28T18:28:38.373Z,6.95
2022-11-28T18:31:12.604Z,13.52
2022-11-28T18:33:41.213Z,23.65
2022-11-28T18:36:11.160Z,11.15
2022-11-28T18:38:39.359Z,8.27
2022-11-28T18:41:09.395Z,15.68
2022-11-28T18:43:38.442Z,110.75
2022-11-28T18:46:07.885Z,60.42
2022-11-28T18:48:40.545Z,27.95
2022-11-28T18:51:12.837Z,31.75
2022-11-28T18:53:41.281Z,16.08
2022-11-28T18:56:10.006Z,14.05
2022-11-28T18:58:40.229Z,16.20
2022-11-28T19:01:12.889Z,13.48
2022-11-28T19:03:42.742Z,8.32
2022-11-28T19:06:12.793Z,8.68
2022-11-28T19:08:41.277Z,6.47
2022-11-28T19:11:11.545Z,6.70
2022-11-28T19:13:40.219Z,6.40
2022-11-28T19:16:10.524Z,5.85
2022-11-28T19:18:39.589Z,6.22
2022-11-28T19:21:11.208Z,5.88
2022-11-28T19:23:40.068Z,6.47
2022-11-28T19:26:10.651Z,6.72
2022-11-28T19:28:40.978Z,6.50
2022-11-28T19:31:10.589Z,6.20
2022-11-28T19:33:38.780Z,7.10
2022-11-28T19:36:10.932Z,6.45
2022-11-28T19:38:39.628Z,6.70
2022-11-28T19:41:08.439Z,6.63
2022-11-28T19:43:36.741Z,6.80
2022-11-28T19:46:05.232Z,6.80
2022-11-28T19:48:35.957Z,7.10
2022-11-28T19:51:05.013Z,7.57
2022-11-28T19:53:37.559Z,7.82
2022-11-28T19:56:07.933Z,7.50
2022-11-28T19:58:39.176Z,8.23
2022-11-28T20:01:12.320Z,8.95
2022-11-28T20:03:41.790Z,7.72
2022-11-28T20:06:11.439Z,7.35
2022-11-28T20:08:41.385Z,7.40
2022-11-28T20:11:11.663Z,8.27
2022-11-28T20:13:40.267Z,8.13
2022-11-28T20:16:10.149Z,9.02
2022-11-28T20:18:39.354Z,8.10
2022-11-28T20:21:08.709Z,8.20
2022-11-28T20:23:42.343Z,9.48
2022-11-28T20:26:11.991Z,9.50
2022-11-28T20:28:41.856Z,8.80
2022-11-28T20:31:19.441Z,8.95
2022-11-28T20:33:47.977Z,8.70
2022-11-28T20:36:18.261Z,9.02
2022-11-28T20:38:48.349Z,9.18
2022-11-28T20:41:18.056Z,9.35
2022-11-28T20:43:46.639Z,8.70
2022-11-28T20:46:16.669Z,14.45
2022-11-28T20:48:45.506Z,13.07
2022-11-28T20:51:15.801Z,11.30
2022-11-28T20:53:44.074Z,8.88
2022-11-28T20:56:15.644Z,9.60
2022-11-28T20:58:44.111Z,10.13
2022-11-28T21:01:15.816Z,11.70
2022-11-28T21:03:44.217Z,10.48
2022-11-28T21:06:13.195Z,9.98
2022-11-28T21:08:41.540Z,9.55
2022-11-28T21:11:10.981Z,9.45
2022-11-28T21:13:41.627Z,9.90
2022-11-28T21:16:15.071Z,9.85
2022-11-28T21:18:44.436Z,9.52
2022-11-28T21:21:14.845Z,9.52
2022-11-28T21:23:43.441Z,9.98
2022-11-28T21:26:13.480Z,9.35
2022-11-28T21:28:44.824Z,9.50
2022-11-28T21:31:15.319Z,9.02
2022-11-28T21:33:43.590Z,9.20
2022-11-28T21:36:13.053Z,9.18
2022-11-28T21:38:41.240Z,8.38
2022-11-28T21:41:09.398Z,8.70
2022-11-28T21:43:37.684Z,9.02
2022-11-28T21:46:08.375Z,9.20
2022-11-28T21:48:37.201Z,9.38
2022-11-28T21:51:06.817Z,8.60
2022-11-28T21:53:35.990Z,9.50
2022-11-28T21:56:04.690Z,9.02
2022-11-28T21:58:32.861Z,9.13
2022-11-28T22:01:02.676Z,9.10
2022-11-28T22:03:32.839Z,9.50
2022-11-28T22:06:02.406Z,9.75
2022-11-28T22:08:30.841Z,9.32
2022-11-28T22:11:01.109Z,10.35
2022-11-28T22:13:29.435Z,10.45
2022-11-28T22:15:58.040Z,9.32
2022-11-28T22:18:26.244Z,8.95
2022-11-28T22:21:06.593Z,8.85
2022-11-28T22:23:41.462Z,10.52
2022-11-28T22:26:10.815Z,10.02
2022-11-28T22:28:39.899Z,10.10
2022-11-28T22:31:08.771Z,10.25
2022-11-28T22:33:37.185Z,10.02
2022-11-28T22:36:10.825Z,9.48
2022-11-28T22:38:39.967Z,9.95
2022-11-28T22:41:09.208Z,10.23
2022-11-28T22:43:37.690Z,10.02
2022-11-28T22:46:06.373Z,9.45
2022-11-28T22:48:35.928Z,9.55
2022-11-28T22:51:10.230Z,9.77
2022-11-28T22:53:38.392Z,10.10
2022-11-28T22:56:07.416Z,9.77
2022-11-28T22:58:42.144Z,9.48
2022-11-28T23:01:12.452Z,9.02
2022-11-28T23:03:40.851Z,9.52
2022-11-28T23:06:13.819Z,9.10
2022-11-28T23:08:42.225Z,9.85
2022-11-28T23:11:12.413Z,8.40
2022-11-28T23:13:41.371Z,8.88
2022-11-28T23:16:12.234Z,8.95
2022-11-28T23:18:40.693Z,8.73
2022-11-28T23:21:10.586Z,9.98
2022-11-28T23:23:38.873Z,9.98
2022-11-28T23:26:09.068Z,10.07
2022-11-28T23:28:38.356Z,9.63
2022-11-28T23:31:08.113Z,10.20
2022-11-28T23:33:36.383Z,9.98
2022-11-28T23:36:17.200Z,9.55
2022-11-28T23:38:46.878Z,9.07
2022-11-28T23:41:15.577Z,9.77
2022-11-28T23:43:44.309Z,9.57
2022-11-28T23:46:13.414Z,10.23
2022-11-28T23:48:42.628Z,9.55
2022-11-28T23:51:12.833Z,8.95
2022-11-28T23:53:43.461Z,9.80
2022-11-28T23:56:13.457Z,9.45
2022-11-28T23:58:42.614Z,8.98
